createdAt,value
2022-08-03T00:01:49.887Z,21.51
2022-08-03T00:06:52.264Z,21.51
2022-08-03T00:11:54.662Z,19.78
2022-08-03T00:16:57.676Z,19.64
2022-08-03T00:22:00.314Z,21.24
2022-08-03T00:27:03.145Z,21.27
2022-08-03T00:32:05.863Z,19.58
2022-08-03T00:37:08.778Z,19.49
2022-08-03T00:42:11.529Z,21.14
2022-08-03T00:47:14.022Z,21.19
2022-08-03T00:52:17.178Z,19.43
2022-08-03T00:57:19.596Z,19.28
2022-08-03T01:02:22.125Z,20.97
2022-08-03T01:07:40.391Z,21.04
2022-08-03T01:12:52.616Z,19.28
2022-08-03T01:17:59.562Z,19.19
2022-08-03T01:23:33.902Z,20.94
2022-08-03T01:28:58.217Z,20.82
2022-08-03T01:34:05.590Z,19.08
2022-08-03T01:39:12.502Z,19.11
2022-08-03T01:44:29.417Z,20.86
2022-08-03T01:49:38.393Z,20.69
2022-08-03T01:54:45.209Z,19.00
2022-08-03T01:59:50.579Z,18.88
2022-08-03T02:04:54.202Z,20.62
2022-08-03T02:09:58.640Z,20.84
2022-08-03T02:15:02.283Z,19.23
2022-08-03T02:30:46.178Z,20.71
2022-08-03T02:35:55.171Z,19.00
2022-08-03T02:40:58.695Z,19.08
2022-08-03T02:46:01.272Z,20.90
2022-08-03T02:51:05.062Z,21.03
2022-08-03T03:06:39.128Z,21.11
2022-08-03T03:11:44.047Z,21.03
2022-08-03T03:16:47.904Z,19.37
2022-08-03T03:21:55.653Z,19.29
2022-08-03T03:26:58.690Z,21.08
2022-08-03T03:32:02.608Z,21.20
2022-08-03T03:37:05.923Z,19.65
2022-08-03T03:42:08.489Z,19.62
2022-08-03T03:54:08.708Z,20.96
2022-08-03T03:59:14.569Z,19.62
2022-08-03T04:04:39.834Z,19.82
2022-08-03T04:10:00.997Z,21.76
2022-08-03T04:15:22.593Z,21.44
2022-08-03T04:20:33.811Z,20.10
2022-08-03T04:25:41.701Z,20.28
2022-08-03T04:30:56.767Z,22.09
2022-08-03T04:36:04.087Z,21.55
2022-08-03T04:41:13.033Z,20.29
2022-08-03T04:46:20.361Z,20.52
2022-08-03T04:51:26.764Z,22.36
2022-08-03T04:56:29.304Z,21.85
2022-08-03T05:12:40.566Z,22.32
2022-08-03T05:17:45.655Z,21.24
2022-08-03T05:22:48.030Z,20.57
2022-08-03T05:27:52.188Z,21.16
2022-08-03T06:24:25.976Z,24.38
2022-08-03T06:47:17.943Z,24.54
2022-08-03T06:52:38.156Z,24.60
2022-08-03T06:57:41.078Z,24.65
2022-08-03T07:02:43.513Z,24.80
2022-08-03T07:07:46.178Z,24.91
2022-08-03T07:12:55.967Z,24.98
2022-08-03T07:18:14.841Z,25.01
2022-08-03T07:23:19.306Z,24.96
2022-08-03T07:28:22.074Z,25.01
2022-08-03T07:33:24.621Z,25.26
2022-08-03T07:38:27.377Z,25.48
2022-08-03T07:43:30.057Z,25.73
2022-08-03T07:48:32.570Z,26.18
2022-08-03T07:53:37.824Z,26.83
2022-08-03T07:58:49.713Z,27.71
2022-08-03T08:03:53.710Z,28.36
2022-08-03T08:09:01.575Z,28.90
2022-08-03T08:14:05.283Z,29.38
2022-08-03T08:19:07.681Z,29.57
2022-08-03T08:24:13.410Z,29.56
2022-08-03T08:29:23.258Z,29.53
2022-08-03T08:34:25.785Z,29.40
2022-08-03T08:39:28.173Z,29.37
2022-08-03T08:44:30.673Z,29.41
2022-08-03T08:49:36.328Z,29.24
2022-08-03T08:54:41.468Z,29.11
2022-08-03T08:59:48.395Z,29.13
2022-08-03T09:04:53.176Z,29.13
2022-08-03T09:10:11.672Z,29.09
2022-08-03T09:22:28.252Z,29.06
2022-08-03T09:27:43.457Z,28.97
2022-08-03T09:32:47.104Z,28.88
2022-08-03T09:38:13.813Z,28.99
2022-08-03T09:43:17.033Z,29.36
2022-08-03T09:48:34.567Z,29.67
2022-08-03T09:53:57.258Z,30.05
2022-08-03T09:59:02.333Z,30.47
2022-08-03T10:04:05.371Z,30.65
2022-08-03T10:09:16.526Z,30.86
2022-08-03T10:14:19.599Z,30.93
2022-08-03T10:19:22.523Z,30.90
2022-08-03T10:24:28.120Z,30.89
2022-08-03T10:29:36.887Z,30.80
2022-08-03T10:34:44.693Z,30.87
2022-08-03T10:39:54.886Z,31.08
2022-08-03T10:45:22.458Z,31.16
2022-08-03T10:50:25.891Z,31.04
2022-08-03T10:56:01.710Z,30.88
2022-08-03T11:01:09.695Z,30.86
2022-08-03T11:06:24.475Z,31.15
2022-08-03T11:11:28.549Z,31.18
2022-08-03T11:16:49.602Z,31.23
2022-08-03T11:21:53.804Z,31.52
2022-08-03T11:27:20.195Z,31.86
2022-08-03T11:32:46.442Z,32.12
2022-08-03T11:38:01.998Z,32.10
2022-08-03T11:43:31.233Z,31.86
2022-08-03T11:48:35.259Z,31.59
2022-08-03T11:53:41.788Z,31.54
2022-08-03T11:59:01.191Z,31.50
2022-08-03T12:04:11.697Z,31.48
2022-08-03T12:09:17.348Z,31.51
2022-08-03T12:14:48.492Z,31.67
2022-08-03T12:19:46.381Z,31.87
2022-08-03T12:25:39.247Z,31.89
2022-08-03T12:30:43.507Z,32.01
2022-08-03T12:36:06.183Z,32.14
2022-08-03T12:41:16.603Z,32.33
2022-08-03T12:46:19.629Z,32.44
2022-08-03T12:51:21.997Z,32.29
2022-08-03T12:56:25.112Z,31.95
2022-08-03T13:01:36.644Z,31.71
2022-08-03T13:06:39.140Z,31.73
2022-08-03T13:11:57.759Z,32.12
2022-08-03T13:17:06.127Z,32.57
2022-08-03T13:22:17.176Z,32.84
2022-08-03T13:28:04.079Z,32.98
2022-08-03T13:32:42.540Z,33.18
2022-08-03T13:37:47.818Z,33.43
2022-08-03T13:42:51.551Z,33.51
2022-08-03T13:47:54.609Z,33.44
2022-08-03T13:52:57.766Z,33.65
2022-08-03T13:58:04.030Z,34.01
2022-08-03T14:03:15.455Z,33.74
2022-08-03T14:08:18.131Z,33.98
2022-08-03T14:13:20.560Z,34.47
2022-08-03T14:19:33.344Z,34.86
2022-08-03T14:24:55.313Z,35.26
2022-08-03T14:29:59.806Z,35.66
2022-08-03T14:35:02.516Z,36.23
2022-08-03T14:40:05.918Z,36.49
2022-08-03T14:45:09.594Z,36.94
2022-08-03T14:50:37.685Z,37.65
2022-08-03T14:55:49.743Z,38.32
2022-08-03T15:00:55.360Z,38.59
2022-08-03T15:05:57.810Z,38.34
2022-08-03T15:11:00.206Z,37.52
2022-08-03T15:16:02.678Z,37.26
2022-08-03T15:21:06.577Z,37.67
2022-08-03T15:26:32.687Z,38.41
2022-08-03T15:31:38.330Z,39.01
2022-08-03T15:36:40.768Z,39.78
2022-08-03T15:41:43.192Z,40.52
2022-08-03T15:46:46.101Z,41.36
2022-08-03T15:51:48.677Z,42.17
2022-08-03T15:56:51.141Z,42.72
2022-08-03T16:01:56.473Z,43.15
2022-08-03T16:06:58.985Z,43.32
2022-08-03T16:12:01.374Z,43.37
2022-08-03T16:17:04.527Z,43.29
2022-08-03T16:22:08.037Z,43.17
2022-08-03T16:27:17.316Z,42.24
2022-08-03T16:32:34.071Z,41.87
2022-08-03T16:37:38.667Z,40.27
2022-08-03T16:42:41.773Z,38.26
2022-08-03T16:47:44.253Z,36.72
2022-08-03T16:52:48.427Z,35.35
2022-08-03T16:57:59.818Z,34.17
2022-08-03T17:03:19.014Z,33.15
2022-08-03T17:08:26.757Z,32.35
2022-08-03T17:13:39.052Z,32.09
2022-08-03T17:18:52.588Z,31.71
2022-08-03T17:24:03.137Z,31.08
2022-08-03T17:35:47.127Z,29.66
2022-08-03T17:40:56.262Z,29.14
2022-08-03T17:45:58.845Z,28.62
2022-08-03T17:51:06.703Z,28.18
2022-08-03T17:56:44.941Z,27.76
2022-08-03T18:02:30.496Z,27.30
2022-08-03T18:07:41.352Z,26.80
2022-08-03T18:12:53.104Z,26.38
2022-08-03T18:18:10.861Z,26.00
2022-08-03T18:23:25.154Z,25.61
2022-08-03T18:28:38.395Z,25.22
2022-08-03T18:34:16.919Z,24.84
2022-08-03T18:39:05.185Z,24.47
2022-08-03T18:44:53.358Z,24.13
2022-08-03T18:49:41.805Z,23.79
2022-08-03T18:55:04.485Z,23.46
2022-08-03T19:00:17.105Z,23.11
2022-08-03T19:05:53.709Z,22.79
2022-08-03T19:10:57.735Z,22.50
2022-08-03T19:16:04.589Z,22.25
2022-08-03T19:26:36.858Z,21.77
2022-08-03T19:31:39.919Z,21.53
2022-08-03T19:37:02.638Z,21.29
2022-08-03T19:42:20.114Z,21.06
2022-08-03T19:47:29.709Z,20.87
2022-08-03T19:52:35.374Z,20.68
2022-08-03T19:57:43.940Z,20.50
2022-08-03T20:02:50.902Z,20.32
2022-08-03T20:07:54.213Z,20.16
2022-08-03T20:12:57.425Z,19.97
2022-08-03T20:18:00.203Z,19.79
2022-08-03T20:23:13.708Z,19.64
2022-08-03T20:28:28.977Z,19.53
2022-08-03T20:33:46.195Z,19.41
2022-08-03T20:38:52.133Z,19.26
2022-08-03T20:43:59.071Z,20.03
2022-08-03T20:49:03.816Z,22.24
2022-08-03T20:59:38.464Z,21.29
2022-08-03T21:04:50.190Z,20.44
2022-08-03T21:09:57.055Z,19.93
2022-08-03T21:13:02.096Z,22.01
2022-08-03T21:13:07.723Z,22.70
2022-08-03T21:15:03.422Z,20.44
2022-08-03T21:20:08.221Z,22.48
2022-08-03T21:25:15.023Z,23.45
2022-08-03T21:30:18.871Z,22.89
2022-08-03T21:35:23.042Z,21.42
2022-08-03T21:40:25.762Z,20.50
2022-08-03T21:45:28.168Z,20.84
2022-08-03T21:50:34.792Z,22.61
2022-08-03T21:55:39.878Z,23.33
2022-08-03T22:00:43.149Z,22.17
2022-08-03T22:05:45.758Z,20.87
2022-08-03T22:10:51.145Z,20.94
2022-08-03T22:15:53.779Z,22.63
2022-08-03T22:20:57.360Z,22.68
2022-08-03T22:26:04.081Z,21.07
2022-08-03T22:31:30.679Z,20.81
2022-08-03T22:37:39.828Z,22.43
2022-08-03T22:42:52.437Z,22.02
2022-08-03T22:47:56.088Z,20.34
2022-08-03T22:52:58.482Z,20.17
2022-08-03T22:58:00.879Z,21.81
2022-08-03T23:03:06.161Z,21.83
2022-08-03T23:08:09.563Z,20.14
2022-08-03T23:13:13.196Z,19.94
2022-08-03T23:18:16.355Z,21.61
2022-08-03T23:23:20.760Z,21.62
2022-08-03T23:28:24.884Z,19.96
2022-08-03T23:33:29.100Z,19.77
2022-08-03T23:38:35.673Z,21.46
2022-08-03T23:43:51.502Z,20.76
2022-08-03T23:48:56.488Z,19.35
2022-08-03T23:54:31.103Z,18.59
2022-08-03T23:59:42.455Z,19.22
